Time;durP1;ratioP1;P1;durP2;ratioP2;P2;SDS_P1;SDS_P2;PMS_P1;PMS_P2;Temp;Humidity;BMP_temperature;BMP_pressure;BME280_temperature;BME280_humidity;BME280_pressure;Samples;Min_cycle;Max_cycle;Signal;HPM_P1;HPM_P2
2023/07/22 00:01:59;;;;;;;10.07;6.53;;;12.40;93.60;;;;;;4955704;28;87381;-77
2023/07/22 00:04:26;;;;;;;9.60;6.13;;;12.40;93.60;;;;;;4954214;28;88864;-77
2023/07/22 00:06:52;;;;;;;11.13;6.35;;;12.30;93.50;;;;;;4955361;28;88440;-77
2023/07/22 00:09:18;;;;;;;9.15;5.60;;;12.30;93.60;;;;;;4946109;28;88362;-77
2023/07/22 00:11:43;;;;;;;9.90;6.22;;;12.30;93.60;;;;;;4955205;28;87608;-77
2023/07/22 00:14:09;;;;;;;10.18;6.72;;;12.30;93.60;;;;;;4955085;28;88356;-77
2023/07/22 00:16:35;;;;;;;13.77;6.80;;;12.30;93.80;;;;;;4954830;28;87609;-77
2023/07/22 00:19:00;;;;;;;10.25;7.18;;;12.20;93.80;;;;;;4946020;28;87704;-77
2023/07/22 00:21:26;;;;;;;12.98;7.00;;;12.20;94.00;;;;;;4958673;28;87673;-78
2023/07/22 00:23:51;;;;;;;9.00;6.20;;;12.20;94.10;;;;;;4957919;28;87760;-77
2023/07/22 00:26:17;;;;;;;10.77;6.38;;;12.20;94.40;;;;;;4948429;28;91009;-77
2023/07/22 00:28:43;;;;;;;11.23;7.25;;;12.20;94.20;;;;;;4958716;28;87684;-77
2023/07/22 00:31:09;;;;;;;10.32;6.22;;;12.10;94.20;;;;;;4958224;28;87540;-77
2023/07/22 00:33:35;;;;;;;10.35;6.63;;;12.10;94.30;;;;;;4957351;28;90185;-77
2023/07/22 00:36:00;;;;;;;11.63;7.28;;;12.10;94.40;;;;;;4959691;28;89837;-78
2023/07/22 00:38:27;;;;;;;10.93;6.63;;;12.10;94.60;;;;;;4939986;28;87878;-77
2023/07/22 00:40:53;;;;;;;13.50;7.53;;;12.10;94.60;;;;;;4958344;28;87443;-77
2023/07/22 00:43:19;;;;;;;9.88;6.68;;;12.10;95.00;;;;;;4958443;28;88479;-78
2023/07/22 00:45:44;;;;;;;10.60;6.82;;;12.10;94.90;;;;;;4957349;28;88480;-77
2023/07/22 00:48:12;;;;;;;10.95;6.93;;;12.00;94.90;;;;;;4959271;28;87879;-77
2023/07/22 00:50:38;;;;;;;11.65;6.72;;;12.00;94.90;;;;;;4940919;28;90653;-77
2023/07/22 00:53:04;;;;;;;11.32;7.65;;;12.10;95.00;;;;;;4939908;28;89050;-77
2023/07/22 00:55:32;;;;;;;10.82;7.00;;;12.10;94.90;;;;;;4957924;28;88478;-77
2023/07/22 00:57:58;;;;;;;11.20;7.55;;;12.10;95.00;;;;;;4958409;28;88699;-77
2023/07/22 01:00:24;;;;;;;11.20;7.78;;;12.10;95.10;;;;;;4957749;28;87761;-77
2023/07/22 01:02:49;;;;;;;13.43;6.68;;;12.10;95.10;;;;;;4958088;28;87329;-77
2023/07/22 01:05:16;;;;;;;11.52;7.35;;;12.10;95.00;;;;;;4957764;28;89033;-78
2023/07/22 01:07:42;;;;;;;12.55;6.90;;;12.10;95.10;;;;;;4939826;28;87625;-77
2023/07/22 01:10:11;;;;;;;13.55;7.28;;;12.10;95.10;;;;;;4958822;28;87564;-77
2023/07/22 01:12:37;;;;;;;13.38;7.80;;;12.10;95.10;;;;;;4957103;28;94108;-77
2023/07/22 01:15:07;;;;;;;10.80;6.75;;;12.10;95.10;;;;;;4957634;28;88401;-78
2023/07/22 01:17:35;;;;;;;12.82;7.38;;;12.10;95.30;;;;;;4957356;28;87932;-77
2023/07/22 01:20:00;;;;;;;9.75;6.07;;;12.10;95.00;;;;;;4957153;28;87641;-77
2023/07/22 01:22:27;;;;;;;11.45;7.25;;;12.10;94.90;;;;;;4956801;28;89360;-77
2023/07/22 01:24:53;;;;;;;12.00;7.00;;;12.10;95.10;;;;;;4957473;28;89860;-77
2023/07/22 01:27:19;;;;;;;11.10;7.38;;;12.20;94.80;;;;;;4957309;28;87535;-77
2023/07/22 01:29:45;;;;;;;11.00;7.43;;;12.10;94.70;;;;;;4958009;28;87593;-77
2023/07/22 01:32:10;;;;;;;13.35;7.07;;;12.20;94.60;;;;;;4956878;28;88863;-77
2023/07/22 01:34:36;;;;;;;10.88;6.68;;;12.20;94.70;;;;;;4957135;28;88373;-77
2023/07/22 01:37:03;;;;;;;11.38;6.65;;;12.20;94.70;;;;;;4956852;28;87809;-77
2023/07/22 01:39:28;;;;;;;9.68;6.18;;;12.20;94.60;;;;;;4957221;28;87426;-77
2023/07/22 01:41:54;;;;;;;11.65;6.63;;;12.20;94.70;;;;;;4939463;28;91624;-78
2023/07/22 01:44:19;;;;;;;11.55;6.72;;;12.20;94.70;;;;;;4957643;28;88078;-77
2023/07/22 01:46:46;;;;;;;15.07;6.88;;;12.30;94.60;;;;;;4956591;28;88603;-77
2023/07/22 01:49:12;;;;;;;13.98;7.68;;;12.20;94.60;;;;;;4957017;28;87521;-77
2023/07/22 01:51:38;;;;;;;12.38;7.15;;;12.30;94.60;;;;;;4956740;28;88347;-77
2023/07/22 01:54:05;;;;;;;11.18;7.05;;;12.30;94.50;;;;;;4939282;28;91619;-77
2023/07/22 01:56:31;;;;;;;12.43;7.13;;;12.30;94.50;;;;;;4956787;28;87325;-78
2023/07/22 01:58:56;;;;;;;10.40;6.55;;;12.30;94.40;;;;;;4958324;28;87168;-77
2023/07/22 02:01:22;;;;;;;9.90;6.15;;;12.30;94.40;;;;;;4957792;28;88243;-77
2023/07/22 02:03:47;;;;;;;12.73;7.45;;;12.30;94.20;;;;;;4957577;28;88637;-77
2023/07/22 02:06:13;;;;;;;16.40;8.27;;;12.30;94.30;;;;;;4958019;28;87650;-77
2023/07/22 02:08:39;;;;;;;14.18;8.27;;;12.20;94.50;;;;;;4947548;28;90272;-77
2023/07/22 02:11:06;;;;;;;15.43;8.55;;;12.20;94.40;;;;;;4956301;28;88585;-77
2023/07/22 02:13:34;;;;;;;16.80;8.45;;;12.20;94.50;;;;;;4946958;28;93042;-77
2023/07/22 02:16:00;;;;;;;16.63;8.45;;;12.10;94.40;;;;;;4957023;28;87696;-77
2023/07/22 02:18:25;;;;;;;15.55;9.25;;;12.10;94.40;;;;;;4956865;28;87463;-77
2023/07/22 02:20:51;;;;;;;18.05;9.95;;;12.10;94.40;;;;;;4958029;28;88790;-77
2023/07/22 02:23:18;;;;;;;14.70;9.25;;;12.10;94.50;;;;;;4957184;28;88412;-78
2023/07/22 02:25:43;;;;;;;19.15;9.65;;;12.10;94.40;;;;;;4939374;28;87707;-77
2023/07/22 02:28:10;;;;;;;17.55;9.80;;;12.10;94.70;;;;;;4957465;28;87487;-78
2023/07/22 02:30:36;;;;;;;20.17;10.07;;;12.20;94.50;;;;;;4956515;28;89097;-77
2023/07/22 02:33:05;;;;;;;14.43;9.10;;;12.20;94.50;;;;;;4955347;28;89745;-77
2023/07/22 02:35:30;;;;;;;18.55;9.13;;;12.20;94.30;;;;;;4955773;28;88583;-77
2023/07/22 02:37:56;;;;;;;16.52;9.80;;;12.20;94.30;;;;;;4956566;28;87569;-77
2023/07/22 02:40:21;;;;;;;16.35;9.63;;;12.20;94.30;;;;;;4944958;28;90575;-77
2023/07/22 02:42:47;;;;;;;19.27;10.10;;;12.20;94.30;;;;;;4956265;28;88351;-77
2023/07/22 02:45:12;;;;;;;18.73;10.60;;;12.20;94.40;;;;;;4957721;28;87702;-77
2023/07/22 02:47:38;;;;;;;16.40;10.05;;;12.20;94.20;;;;;;4955353;28;87977;-77
2023/07/22 02:50:08;;;;;;;18.17;10.13;;;12.20;94.20;;;;;;4955610;28;88578;-77
2023/07/22 02:52:35;;;;;;;15.65;10.20;;;12.20;94.20;;;;;;4956426;28;88436;-77
2023/07/22 02:55:04;;;;;;;16.80;10.52;;;12.20;94.20;;;;;;4956183;28;87436;-77
2023/07/22 02:57:30;;;;;;;15.15;9.70;;;12.20;94.20;;;;;;4956214;28;87726;-77
2023/07/22 02:59:56;;;;;;;17.00;9.95;;;12.20;94.20;;;;;;4956569;28;90021;-77
2023/07/22 03:02:22;;;;;;;21.48;10.68;;;12.20;94.20;;;;;;4938941;28;91746;-77
2023/07/22 03:04:47;;;;;;;16.45;9.95;;;12.10;94.20;;;;;;4956823;28;87533;-77
2023/07/22 03:07:13;;;;;;;21.38;10.68;;;12.10;94.20;;;;;;4956078;28;87835;-77
2023/07/22 03:09:39;;;;;;;16.60;10.57;;;12.10;94.10;;;;;;4956420;28;88963;-77
2023/07/22 03:12:04;;;;;;;17.30;10.32;;;12.10;94.10;;;;;;4956807;28;88115;-77
2023/07/22 03:14:37;;;;;;;17.20;9.95;;;12.10;94.10;;;;;;4955545;28;87161;-77
2023/07/22 03:17:03;;;;;;;17.73;10.07;;;12.00;94.20;;;;;;4956214;28;87318;-77
2023/07/22 03:19:29;;;;;;;19.40;10.55;;;12.00;94.20;;;;;;4955297;28;88152;-77
2023/07/22 03:21:55;;;;;;;22.80;10.75;;;12.00;94.20;;;;;;4954260;28;88364;-77
2023/07/22 03:24:21;;;;;;;17.10;9.75;;;12.00;94.30;;;;;;4954409;28;88666;-77
2023/07/22 03:26:46;;;;;;;16.88;10.32;;;12.00;94.40;;;;;;4956621;28;87498;-77
2023/07/22 03:29:12;;;;;;;16.27;9.70;;;12.00;94.40;;;;;;4935855;28;91851;-77
2023/07/22 03:31:37;;;;;;;22.13;10.88;;;12.00;94.60;;;;;;4937090;28;91464;-77
2023/07/22 03:34:03;;;;;;;18.88;10.32;;;11.90;94.60;;;;;;4954782;28;87805;-77
2023/07/22 03:36:29;;;;;;;23.13;10.68;;;11.90;94.70;;;;;;4954171;28;88054;-77
2023/07/22 03:38:55;;;;;;;19.02;10.32;;;12.00;94.70;;;;;;4954413;28;87803;-77
2023/07/22 03:41:20;;;;;;;19.67;10.63;;;12.00;94.70;;;;;;4954850;28;88435;-77
2023/07/22 03:43:46;;;;;;;18.75;10.45;;;12.00;94.70;;;;;;4953900;28;88164;-77
2023/07/22 03:46:11;;;;;;;17.33;10.10;;;12.00;94.70;;;;;;4954470;28;88061;-78
2023/07/22 03:48:37;;;;;;;20.67;10.50;;;12.00;94.70;;;;;;4954201;28;89579;-77
2023/07/22 03:51:03;;;;;;;20.17;10.27;;;12.00;94.60;;;;;;4954690;28;89100;-77
2023/07/22 03:53:28;;;;;;;19.90;10.55;;;12.00;94.60;;;;;;4954526;28;87559;-78
2023/07/22 03:55:54;;;;;;;17.15;9.88;;;12.00;94.60;;;;;;4936602;28;90757;-77
2023/07/22 03:58:20;;;;;;;19.38;9.35;;;12.00;94.60;;;;;;4954816;28;87749;-78
2023/07/22 04:00:49;;;;;;;19.65;11.30;;;12.00;94.70;;;;;;4955135;28;87464;-78
2023/07/22 04:03:14;;;;;;;20.17;10.00;;;12.00;94.80;;;;;;4954327;28;87526;-77
2023/07/22 04:05:40;;;;;;;22.58;10.70;;;12.00;94.70;;;;;;4953884;28;87297;-77
2023/07/22 04:08:06;;;;;;;18.70;10.55;;;12.00;94.70;;;;;;4954469;28;89034;-77
2023/07/22 04:10:31;;;;;;;18.52;10.30;;;12.00;94.70;;;;;;4953487;28;88278;-77
2023/07/22 04:12:57;;;;;;;16.77;9.82;;;11.90;94.70;;;;;;4945288;28;88836;-77
2023/07/22 04:15:22;;;;;;;26.20;11.13;;;11.90;94.70;;;;;;4936717;28;89513;-77
2023/07/22 04:17:48;;;;;;;17.25;9.52;;;11.90;94.70;;;;;;4954693;28;88608;-77
2023/07/22 04:20:14;;;;;;;21.30;11.25;;;11.90;94.70;;;;;;4954696;28;88340;-78
2023/07/22 04:22:39;;;;;;;25.10;10.93;;;11.90;94.90;;;;;;4954273;28;87773;-78
2023/07/22 04:25:06;;;;;;;20.38;11.27;;;11.90;95.00;;;;;;4953347;28;87850;-77
2023/07/22 04:27:31;;;;;;;22.73;12.40;;;11.80;95.10;;;;;;4935350;28;91718;-77
2023/07/22 04:29:57;;;;;;;23.92;11.48;;;11.80;95.20;;;;;;4955040;28;88169;-77
2023/07/22 04:32:23;;;;;;;24.95;12.00;;;11.80;95.30;;;;;;4953769;28;87752;-77
2023/07/22 04:34:48;;;;;;;19.83;12.15;;;11.80;95.40;;;;;;4934851;28;90886;-77
2023/07/22 04:37:14;;;;;;;27.08;13.18;;;11.80;95.50;;;;;;4953346;28;89273;-77
2023/07/22 04:39:39;;;;;;;21.30;12.20;;;11.80;95.50;;;;;;4953735;28;89391;-77
2023/07/22 04:42:05;;;;;;;22.08;12.18;;;11.90;95.60;;;;;;4953619;28;87625;-77
2023/07/22 04:44:31;;;;;;;23.70;12.95;;;11.80;95.60;;;;;;4953016;28;88043;-77
2023/07/22 04:46:56;;;;;;;23.08;12.85;;;11.90;95.50;;;;;;4953357;28;94111;-78
2023/07/22 04:49:22;;;;;;;24.27;13.27;;;11.90;95.50;;;;;;4953325;28;87991;-77
2023/07/22 04:51:48;;;;;;;25.85;13.60;;;11.90;95.60;;;;;;4954033;28;87110;-77
2023/07/22 04:54:14;;;;;;;20.05;10.68;;;11.90;95.60;;;;;;4954241;28;87800;-77
2023/07/22 04:56:41;;;;;;;20.20;11.93;;;11.90;95.50;;;;;;4954238;28;87818;-77
2023/07/22 04:59:07;;;;;;;26.00;12.20;;;11.90;95.50;;;;;;4953468;28;88602;-78
2023/07/22 05:01:32;;;;;;;20.75;12.27;;;11.90;95.50;;;;;;4953088;28;88788;-77
2023/07/22 05:03:58;;;;;;;22.60;12.18;;;11.90;95.70;;;;;;4953914;28;87373;-77
2023/07/22 05:06:23;;;;;;;27.25;13.40;;;11.90;95.70;;;;;;4955194;28;88365;-77
2023/07/22 05:08:50;;;;;;;25.38;13.30;;;12.00;95.90;;;;;;4957835;28;88094;-77
2023/07/22 05:11:16;;;;;;;22.52;12.82;;;12.00;95.90;;;;;;4956425;28;88001;-77
2023/07/22 05:13:42;;;;;;;26.83;13.10;;;12.00;96.00;;;;;;4957107;28;87561;-77
2023/07/22 05:16:08;;;;;;;24.55;11.52;;;12.10;96.00;;;;;;4957304;28;87943;-78
2023/07/22 05:18:33;;;;;;;27.13;12.13;;;12.10;96.10;;;;;;4956735;28;89031;-78
2023/07/22 05:20:59;;;;;;;24.67;12.15;;;12.20;96.20;;;;;;4958093;28;87633;-77
2023/07/22 05:23:24;;;;;;;23.80;12.00;;;12.30;96.20;;;;;;4956445;28;87738;-77
2023/07/22 05:25:54;;;;;;;27.80;12.05;;;12.40;96.50;;;;;;4956086;28;89833;-78
2023/07/22 05:28:20;;;;;;;23.15;13.15;;;12.50;96.50;;;;;;4956406;28;89520;-77
2023/07/22 05:30:45;;;;;;;23.08;12.38;;;12.50;96.60;;;;;;4955860;28;87359;-77
2023/07/22 05:33:11;;;;;;;29.52;12.25;;;12.70;96.60;;;;;;4956307;28;87728;-78
2023/07/22 05:35:36;;;;;;;23.23;12.52;;;12.70;96.30;;;;;;4955318;28;94844;-77
2023/07/22 05:38:04;;;;;;;23.35;12.95;;;12.80;96.30;;;;;;4955607;28;89226;-77
2023/07/22 05:40:30;;;;;;;26.55;13.32;;;13.00;96.30;;;;;;4956750;28;87682;-78
2023/07/22 05:42:56;;;;;;;22.83;12.55;;;13.00;96.20;;;;;;4956231;28;88306;-78
2023/07/22 05:45:22;;;;;;;24.67;11.85;;;13.10;96.10;;;;;;4937846;28;94846;-78
2023/07/22 05:47:47;;;;;;;23.15;12.88;;;13.20;96.10;;;;;;4957041;28;88290;-78
2023/07/22 05:50:13;;;;;;;28.05;12.40;;;13.20;96.10;;;;;;4956092;28;88562;-77
2023/07/22 05:52:38;;;;;;;20.25;11.45;;;13.30;96.00;;;;;;4955640;28;87260;-77
2023/07/22 05:55:04;;;;;;;26.50;12.05;;;13.40;96.00;;;;;;4955412;28;88711;-78
2023/07/22 05:57:31;;;;;;;23.20;12.55;;;13.50;96.00;;;;;;4955284;28;87262;-77
2023/07/22 05:59:56;;;;;;;22.08;11.60;;;13.50;96.00;;;;;;4955724;28;87909;-77
2023/07/22 06:02:22;;;;;;;18.40;11.52;;;13.60;95.50;;;;;;4956291;28;87740;-78
2023/07/22 06:04:48;;;;;;;24.45;11.82;;;13.70;95.70;;;;;;4955319;28;88100;-77
2023/07/22 06:07:13;;;;;;;21.35;11.73;;;13.80;95.50;;;;;;4955747;28;88152;-77
2023/07/22 06:09:39;;;;;;;24.17;12.32;;;13.80;95.50;;;;;;4956551;28;87408;-78
2023/07/22 06:12:05;;;;;;;21.58;13.00;;;13.90;95.50;;;;;;4956896;28;87837;-77
2023/07/22 06:14:31;;;;;;;22.88;12.75;;;14.00;95.70;;;;;;4954374;28;89516;-77
2023/07/22 06:16:57;;;;;;;27.15;12.07;;;14.10;95.60;;;;;;4955352;28;89843;-77
2023/07/22 06:19:23;;;;;;;24.65;12.13;;;14.20;95.90;;;;;;4956446;28;87800;-77
2023/07/22 06:21:49;;;;;;;19.15;11.35;;;14.30;95.50;;;;;;4955310;28;87600;-77
2023/07/22 06:24:15;;;;;;;25.33;11.52;;;14.40;95.60;;;;;;4938129;28;91176;-78
2023/07/22 06:26:40;;;;;;;23.88;11.52;;;14.50;95.40;;;;;;4955288;28;88248;-78
2023/07/22 06:29:06;;;;;;;25.90;11.57;;;14.70;95.50;;;;;;4956153;28;88055;-77
2023/07/22 06:31:32;;;;;;;23.40;11.70;;;14.80;95.20;;;;;;4955449;28;94662;-78
2023/07/22 06:33:59;;;;;;;26.33;12.00;;;14.90;95.20;;;;;;4954973;28;88834;-78
2023/07/22 06:36:25;;;;;;;22.80;11.27;;;15.10;95.20;;;;;;4954917;28;87698;-78
2023/07/22 06:38:51;;;;;;;27.27;10.75;;;15.30;94.90;;;;;;4937315;28;88268;-78
2023/07/22 06:41:17;;;;;;;26.25;10.63;;;15.40;94.60;;;;;;4954468;28;87454;-78
2023/07/22 06:43:43;;;;;;;20.40;9.93;;;15.50;94.30;;;;;;4954520;28;88091;-78
2023/07/22 06:46:08;;;;;;;19.08;10.18;;;15.60;94.10;;;;;;4956136;28;87806;-77
2023/07/22 06:48:34;;;;;;;23.02;10.57;;;15.60;94.00;;;;;;4954034;28;87340;-77
2023/07/22 06:51:00;;;;;;;21.90;10.23;;;15.70;94.10;;;;;;4955198;28;87898;-78
2023/07/22 06:53:25;;;;;;;22.33;9.63;;;15.80;94.00;;;;;;4935372;28;91505;-78
2023/07/22 06:55:52;;;;;;;20.90;10.23;;;15.90;93.70;;;;;;4955687;28;88603;-78
2023/07/22 06:58:19;;;;;;;19.38;9.57;;;16.00;93.30;;;;;;4935616;28;87561;-78
2023/07/22 07:00:45;;;;;;;20.17;9.35;;;16.10;93.20;;;;;;4955136;28;87386;-78
2023/07/22 07:03:10;;;;;;;22.63;9.40;;;16.10;92.90;;;;;;4955782;28;89990;-78
2023/07/22 07:05:36;;;;;;;22.40;9.27;;;16.20;93.00;;;;;;4954492;28;89194;-78
2023/07/22 07:08:02;;;;;;;15.05;9.18;;;16.20;92.70;;;;;;4955754;28;87778;-78
2023/07/22 07:10:28;;;;;;;19.17;9.82;;;16.30;93.00;;;;;;4955964;28;87925;-78
2023/07/22 07:12:53;;;;;;;16.23;7.93;;;16.30;93.30;;;;;;4955584;28;88380;-78
2023/07/22 07:15:19;;;;;;;16.92;9.43;;;16.50;93.10;;;;;;4955398;28;87781;-78
2023/07/22 07:17:44;;;;;;;21.73;9.80;;;16.60;92.70;;;;;;4956357;28;87509;-78
2023/07/22 07:20:13;;;;;;;19.02;8.32;;;16.70;93.00;;;;;;4955988;28;87867;-78
2023/07/22 07:22:41;;;;;;;19.25;8.02;;;16.80;92.20;;;;;;4956672;28;89151;-79
2023/07/22 07:25:07;;;;;;;18.27;8.45;;;16.80;91.60;;;;;;4942444;28;91538;-79
2023/07/22 07:27:32;;;;;;;16.30;8.45;;;16.80;91.80;;;;;;4961286;28;89151;-80
2023/07/22 07:29:58;;;;;;;18.00;7.50;;;16.90;91.70;;;;;;4960808;28;87538;-78
2023/07/22 07:32:24;;;;;;;17.17;8.00;;;16.90;92.00;;;;;;4941320;28;89480;-80
2023/07/22 07:34:50;;;;;;;17.83;7.75;;;17.10;92.10;;;;;;4939732;28;90460;-79
2023/07/22 07:37:15;;;;;;;13.95;7.97;;;17.20;92.30;;;;;;4959120;28;88078;-78
2023/07/22 07:39:41;;;;;;;16.27;6.80;;;17.40;91.40;;;;;;4958354;28;87595;-82
2023/07/22 07:42:07;;;;;;;15.60;7.45;;;17.50;91.00;;;;;;4941860;28;91788;-82
2023/07/22 07:44:32;;;;;;;20.95;7.72;;;17.50;90.70;;;;;;4937689;28;89279;-82
2023/07/22 07:46:58;;;;;;;17.40;7.25;;;17.60;91.00;;;;;;4938218;28;88892;-80
2023/07/22 07:49:23;;;;;;;13.25;6.40;;;17.70;90.80;;;;;;4937798;28;89535;-82
2023/07/22 07:51:49;;;;;;;14.05;6.18;;;17.70;90.60;;;;;;4944318;28;92418;-80
2023/07/22 07:54:15;;;;;;;11.93;6.47;;;17.80;91.20;;;;;;4940228;28;91170;-82
2023/07/22 07:56:40;;;;;;;12.95;6.18;;;17.80;90.10;;;;;;4938179;28;87629;-80
2023/07/22 07:59:08;;;;;;;15.52;5.40;;;17.80;90.40;;;;;;4938107;28;90670;-79
2023/07/22 08:01:35;;;;;;;14.15;5.45;;;17.90;90.30;;;;;;4938319;28;90208;-80
2023/07/22 08:04:01;;;;;;;17.60;5.57;;;17.90;90.50;;;;;;4937749;28;89836;-81
2023/07/22 08:06:26;;;;;;;16.75;5.53;;;18.00;90.10;;;;;;4937329;28;87586;-80
2023/07/22 08:08:52;;;;;;;14.95;5.70;;;18.00;89.60;;;;;;4959596;28;87105;-80
2023/07/22 08:11:18;;;;;;;12.10;5.35;;;18.10;89.80;;;;;;4956188;28;88063;-81
2023/07/22 08:13:44;;;;;;;9.20;4.10;;;18.10;88.40;;;;;;4946758;28;90365;-81
2023/07/22 08:16:12;;;;;;;9.13;4.15;;;18.20;88.00;;;;;;4938599;28;88592;-80
2023/07/22 08:18:38;;;;;;;12.18;4.55;;;18.10;87.10;;;;;;4937939;28;90496;-81
2023/07/22 08:21:09;;;;;;;6.90;3.55;;;18.20;87.70;;;;;;4939517;28;92009;-80
2023/07/22 08:23:36;;;;;;;10.30;3.90;;;18.30;86.90;;;;;;4938691;28;91064;-80
2023/07/22 08:26:03;;;;;;;17.75;4.32;;;18.30;86.40;;;;;;4954520;28;88012;-79
2023/07/22 08:28:30;;;;;;;8.88;3.78;;;18.40;85.90;;;;;;4937312;28;88703;-79
2023/07/22 08:30:56;;;;;;;6.88;3.47;;;18.50;87.10;;;;;;4937049;28;89307;-79
2023/07/22 08:33:23;;;;;;;7.28;3.83;;;18.70;84.20;;;;;;4955170;28;86841;-79
2023/07/22 08:35:50;;;;;;;7.40;3.22;;;18.90;85.10;;;;;;4937162;28;87789;-78
2023/07/22 08:38:16;;;;;;;10.82;3.67;;;19.10;82.90;;;;;;4935663;28;89967;-79
2023/07/22 08:40:42;;;;;;;8.38;3.15;;;19.20;81.70;;;;;;4953273;28;90535;-81
2023/07/22 08:43:09;;;;;;;9.77;3.58;;;19.30;82.80;;;;;;4961645;28;89613;-79
2023/07/22 08:45:38;;;;;;;5.82;2.90;;;19.30;82.20;;;;;;4957762;28;87603;-81
2023/07/22 08:48:09;;;;;;;6.25;3.10;;;19.40;79.90;;;;;;4941605;28;90357;-83
2023/07/22 08:50:44;;;;;;;11.25;3.58;;;19.40;81.40;;;;;;4959653;28;88315;-83
2023/07/22 08:53:13;;;;;;;5.53;2.90;;;19.50;81.00;;;;;;4945963;28;89462;-83
2023/07/22 08:55:42;;;;;;;6.53;3.42;;;19.60;80.20;;;;;;4947606;28;87815;-82
2023/07/22 08:58:11;;;;;;;6.70;2.83;;;19.70;78.80;;;;;;4942639;28;87605;-82
2023/07/22 09:00:39;;;;;;;6.40;2.83;;;19.80;77.40;;;;;;4948399;28;90617;-82
2023/07/22 09:03:05;;;;;;;6.18;3.22;;;19.90;76.50;;;;;;4944581;28;90213;-82
2023/07/22 09:05:35;;;;;;;6.35;3.13;;;19.90;76.00;;;;;;4942085;28;88775;-81
2023/07/22 09:08:07;;;;;;;6.60;3.28;;;19.90;75.70;;;;;;4942276;28;89328;-82
2023/07/22 09:10:33;;;;;;;6.65;2.75;;;19.80;76.50;;;;;;4946287;28;90467;-82
2023/07/22 09:13:00;;;;;;;6.35;1.92;;;19.90;78.20;;;;;;4945410;28;91336;-82
2023/07/22 09:15:31;;;;;;;6.20;2.17;;;20.10;73.70;;;;;;4951030;28;87832;-82
2023/07/22 09:18:00;;;;;;;8.02;2.63;;;20.20;76.10;;;;;;4949275;28;87640;-81
2023/07/22 09:20:28;;;;;;;7.15;2.13;;;20.40;73.50;;;;;;4960949;28;87950;-82
2023/07/22 09:22:54;;;;;;;6.50;2.53;;;20.40;72.50;;;;;;4944195;28;90398;-82
2023/07/22 09:25:25;;;;;;;6.40;2.00;;;20.50;72.80;;;;;;4944694;28;87577;-82
2023/07/22 09:27:52;;;;;;;18.52;3.35;;;20.60;71.70;;;;;;4944858;28;90760;-81
2023/07/22 09:30:33;;;;;;;7.65;2.42;;;20.70;71.00;;;;;;4961144;28;92200;-81
2023/07/22 09:33:07;;;;;;;3.85;1.70;;;20.70;69.50;;;;;;4941828;28;90538;-84
2023/07/22 09:35:49;;;;;;;2.13;1.58;;;20.70;71.30;;;;;;4939993;28;87485;-83
2023/07/22 09:38:22;;;;;;;3.22;1.75;;;20.80;69.30;;;;;;4940015;28;90198;-83
2023/07/22 09:40:48;;;;;;;4.97;2.15;;;20.80;69.00;;;;;;4939522;28;91447;-84
2023/07/22 09:43:13;;;;;;;6.13;2.05;;;20.80;69.60;;;;;;4939582;28;90185;-84
2023/07/22 09:45:39;;;;;;;3.08;1.83;;;20.80;70.00;;;;;;4938940;28;87505;-83
2023/07/22 09:48:05;;;;;;;4.25;2.15;;;20.80;68.40;;;;;;4941212;28;90514;-84
2023/07/22 09:50:31;;;;;;;5.47;2.22;;;20.90;69.40;;;;;;4938965;28;92265;-84
2023/07/22 09:52:59;;;;;;;4.78;2.28;;;20.90;69.70;;;;;;4938569;28;91052;-85
2023/07/22 09:55:28;;;;;;;4.57;1.80;;;20.90;68.00;;;;;;4938277;28;89075;-82
2023/07/22 09:58:17;;;;;;;4.18;1.63;;;21.00;68.00;;;;;;4939514;28;89992;-82
2023/07/22 10:00:51;;;;;;;6.47;1.95;;;21.10;67.00;;;;;;4941571;28;89023;-84
2023/07/22 10:03:19;;;;;;;3.97;1.55;;;21.20;65.30;;;;;;4945860;28;90457;-84
2023/07/22 10:05:48;;;;;;;4.13;1.50;;;21.20;66.00;;;;;;4939524;28;87629;-82
2023/07/22 10:08:17;;;;;;;5.20;1.67;;;21.20;66.70;;;;;;4938841;28;90176;-84
2023/07/22 10:10:44;;;;;;;5.53;2.20;;;21.30;64.00;;;;;;4954476;28;91744;-91
2023/07/22 10:13:10;;;;;;;4.80;1.98;;;21.30;65.50;;;;;;4938703;28;89852;-85
2023/07/22 10:15:36;;;;;;;4.05;1.55;;;21.30;64.10;;;;;;4939564;28;87299;-84
2023/07/22 10:18:04;;;;;;;4.15;1.42;;;21.40;64.50;;;;;;4940756;28;89938;-82
2023/07/22 10:20:34;;;;;;;4.82;1.50;;;21.50;60.70;;;;;;4939010;28;91223;-82
2023/07/22 10:23:01;;;;;;;5.15;1.45;;;21.50;62.40;;;;;;4938877;28;92357;-81
2023/07/22 10:25:26;;;;;;;6.10;1.45;;;21.70;65.70;;;;;;4948253;28;87796;-81
2023/07/22 10:27:53;;;;;;;2.88;1.38;;;21.90;61.80;;;;;;4940018;28;90639;-81
2023/07/22 10:30:19;;;;;;;1.80;1.10;;;22.00;63.80;;;;;;4946719;28;91168;-81
2023/07/22 10:32:53;;;;;;;3.88;1.23;;;22.10;61.10;;;;;;4958201;28;87867;-81
2023/07/22 10:35:34;;;;;;;2.85;1.45;;;22.30;60.80;;;;;;4959698;28;87770;-82
2023/07/22 10:38:12;;;;;;;2.13;1.05;;;22.50;61.20;;;;;;4941454;28;90621;-82
2023/07/22 10:40:53;;;;;;;2.90;1.17;;;22.60;58.90;;;;;;4939968;28;91883;-81
2023/07/22 10:43:31;;;;;;;2.65;1.10;;;22.70;58.60;;;;;;4958327;28;88510;-81
2023/07/22 10:45:58;;;;;;;6.80;1.30;;;22.80;58.20;;;;;;4939937;28;88214;-81
2023/07/22 10:48:34;;;;;;;3.80;1.42;;;22.80;56.80;;;;;;4941014;28;90933;-80
2023/07/22 10:51:14;;;;;;;6.95;1.15;;;22.80;56.00;;;;;;4958041;28;90823;-81
2023/07/22 10:53:46;;;;;;;2.55;1.40;;;22.70;55.50;;;;;;4940152;28;90429;-81
2023/07/22 10:56:19;;;;;;;1.85;1.40;;;22.60;56.30;;;;;;4957547;28;88200;-80
2023/07/22 10:58:44;;;;;;;3.03;1.73;;;22.60;57.10;;;;;;4940213;28;89470;-80
2023/07/22 11:01:29;;;;;;;5.28;1.58;;;22.80;57.90;;;;;;4948648;28;89258;-79
2023/07/22 11:04:16;;;;;;;3.13;1.70;;;22.90;56.80;;;;;;4937290;28;91089;-80
2023/07/22 11:06:48;;;;;;;6.20;1.42;;;23.00;55.70;;;;;;4955883;28;88088;-78
2023/07/22 11:09:42;;;;;;;2.50;1.70;;;23.10;56.00;;;;;;4940495;28;87995;-79
2023/07/22 11:12:18;;;;;;;3.75;1.67;;;23.30;57.20;;;;;;4944841;28;96970;-80
2023/07/22 11:14:52;;;;;;;4.05;1.95;;;23.40;55.40;;;;;;4957389;28;93546;-81
2023/07/22 11:17:29;;;;;;;4.38;1.60;;;23.50;55.20;;;;;;4939681;28;87535;-79
2023/07/22 11:19:55;;;;;;;2.95;1.58;;;23.50;54.80;;;;;;4939471;28;90947;-77
2023/07/22 11:22:21;;;;;;;4.00;1.42;;;23.60;53.70;;;;;;4957199;28;88272;-77
2023/07/22 11:24:57;;;;;;;3.75;1.88;;;23.60;53.90;;;;;;4956809;28;88510;-85
2023/07/22 11:27:23;;;;;;;4.47;1.70;;;23.70;55.00;;;;;;4957972;28;87335;-77
2023/07/22 11:29:52;;;;;;;6.20;2.17;;;23.80;53.10;;;;;;4957828;28;87301;-79
2023/07/22 11:32:21;;;;;;;3.22;1.75;;;23.90;53.70;;;;;;4941112;28;91885;-79
2023/07/22 11:34:47;;;;;;;3.58;1.80;;;23.90;51.80;;;;;;4957812;28;88556;-79
2023/07/22 11:37:14;;;;;;;3.65;1.73;;;23.80;50.60;;;;;;4955582;28;88690;-82
2023/07/22 11:39:41;;;;;;;4.20;2.03;;;23.70;51.40;;;;;;4938242;28;90417;-79
2023/07/22 11:42:07;;;;;;;3.75;1.63;;;23.70;53.40;;;;;;4937959;28;90610;-81
2023/07/22 11:44:33;;;;;;;2.53;1.77;;;23.80;51.60;;;;;;4955451;28;88036;-80
2023/07/22 11:47:04;;;;;;;4.03;1.70;;;23.90;52.10;;;;;;4940016;28;88096;-81
2023/07/22 11:49:32;;;;;;;3.03;1.52;;;24.10;51.90;;;;;;4958557;28;87662;-80
2023/07/22 11:52:07;;;;;;;5.05;1.90;;;24.10;50.20;;;;;;4937000;28;89955;-80
2023/07/22 11:54:34;;;;;;;2.45;1.40;;;24.20;50.80;;;;;;4956358;28;86932;-81
2023/07/22 11:57:29;;;;;;;2.35;1.40;;;24.20;51.20;;;;;;4939852;28;87649;-78
2023/07/22 11:59:56;;;;;;;2.53;1.40;;;24.30;52.00;;;;;;4935248;28;92501;-78
2023/07/22 12:02:28;;;;;;;2.17;1.35;;;24.50;52.00;;;;;;4955205;28;89753;-79
2023/07/22 12:05:05;;;;;;;2.05;1.15;;;24.40;49.80;;;;;;4938384;28;90024;-80
2023/07/22 12:07:36;;;;;;;3.60;1.33;;;24.30;49.60;;;;;;4955688;28;87729;-80
2023/07/22 12:10:05;;;;;;;2.90;0.90;;;24.20;49.20;;;;;;4954630;28;88137;-79
2023/07/22 12:12:48;;;;;;;2.42;1.08;;;24.10;49.00;;;;;;4955330;28;88489;-78
2023/07/22 12:15:19;;;;;;;4.05;1.10;;;24.10;51.20;;;;;;4957322;28;88364;-80
2023/07/22 12:17:54;;;;;;;3.00;0.90;;;24.10;49.20;;;;;;4957182;28;87553;-78
2023/07/22 12:20:27;;;;;;;2.00;1.13;;;24.00;49.30;;;;;;4957577;28;87551;-79
2023/07/22 12:22:54;;;;;;;2.65;1.20;;;23.90;50.50;;;;;;4957116;28;88808;-78
2023/07/22 12:25:20;;;;;;;2.08;1.17;;;23.80;50.60;;;;;;4957766;28;88335;-78
2023/07/22 12:27:45;;;;;;;3.10;1.30;;;23.80;50.20;;;;;;4957285;28;88910;-78
2023/07/22 12:30:12;;;;;;;2.05;1.05;;;23.80;49.90;;;;;;4957880;28;87776;-78
2023/07/22 12:32:38;;;;;;;2.03;1.13;;;24.00;49.00;;;;;;4957399;28;88390;-78
2023/07/22 12:35:04;;;;;;;2.88;1.27;;;24.00;49.80;;;;;;4939853;28;90020;-77
2023/07/22 12:37:30;;;;;;;2.25;1.00;;;24.20;50.90;;;;;;4940260;28;87544;-78
2023/07/22 12:39:56;;;;;;;2.60;1.20;;;24.40;48.40;;;;;;4958197;28;88164;-78